sensor_id;sensor_type;location;lat;lon;timestamp;P1;durP1;ratioP1;P2;durP2;ratioP2
21501;SDS011;27639;48.674;9.242;2022-08-04T00:02:26;4.00;;;2.38;;
21501;SDS011;27639;48.674;9.242;2022-08-04T00:08:06;4.75;;;2.67;;
21501;SDS011;27639;48.674;9.242;2022-08-04T00:10:55;4.85;;;2.53;;
21501;SDS011;27639;48.674;9.242;2022-08-04T00:13:24;4.15;;;2.30;;
21501;SDS011;27639;48.674;9.242;2022-08-04T00:15:52;5.35;;;2.50;;
21501;SDS011;27639;48.674;9.242;2022-08-04T00:18:40;5.70;;;2.60;;
21501;SDS011;27639;48.674;9.242;2022-08-04T00:21:11;4.72;;;2.22;;
21501;SDS011;27639;48.674;9.242;2022-08-04T00:23:39;5.68;;;2.70;;
21501;SDS011;27639;48.674;9.242;2022-08-04T00:26:08;3.33;;;2.10;;
21501;SDS011;27639;48.674;9.242;2022-08-04T00:28:34;3.45;;;2.20;;
21501;SDS011;27639;48.674;9.242;2022-08-04T00:31:02;3.42;;;2.10;;
21501;SDS011;27639;48.674;9.242;2022-08-04T00:33:29;4.28;;;2.20;;
21501;SDS011;27639;48.674;9.242;2022-08-04T00:35:56;3.20;;;2.20;;
21501;SDS011;27639;48.674;9.242;2022-08-04T00:38:23;3.78;;;2.13;;
21501;SDS011;27639;48.674;9.242;2022-08-04T00:48:57;5.20;;;2.42;;
21501;SDS011;27639;48.674;9.242;2022-08-04T00:51:55;4.57;;;2.20;;
21501;SDS011;27639;48.674;9.242;2022-08-04T01:00:57;4.88;;;2.58;;
21501;SDS011;27639;48.674;9.242;2022-08-04T01:03:32;5.32;;;2.58;;
21501;SDS011;27639;48.674;9.242;2022-08-04T01:14:28;4.13;;;2.40;;
21501;SDS011;27639;48.674;9.242;2022-08-04T01:19:52;5.30;;;2.55;;
21501;SDS011;27639;48.674;9.242;2022-08-04T01:30:31;5.32;;;2.70;;
21501;SDS011;27639;48.674;9.242;2022-08-04T01:33:03;3.65;;;2.13;;
21501;SDS011;27639;48.674;9.242;2022-08-04T01:35:46;4.30;;;2.47;;
21501;SDS011;27639;48.674;9.242;2022-08-04T01:38:24;3.67;;;2.47;;
21501;SDS011;27639;48.674;9.242;2022-08-04T01:40:55;3.95;;;2.45;;
21501;SDS011;27639;48.674;9.242;2022-08-04T01:43:24;4.15;;;2.30;;
21501;SDS011;27639;48.674;9.242;2022-08-04T01:45:59;4.57;;;2.33;;
21501;SDS011;27639;48.674;9.242;2022-08-04T01:48:27;3.60;;;2.53;;
21501;SDS011;27639;48.674;9.242;2022-08-04T01:50:56;4.82;;;2.67;;
21501;SDS011;27639;48.674;9.242;2022-08-04T01:53:30;5.03;;;2.60;;
21501;SDS011;27639;48.674;9.242;2022-08-04T01:55:59;3.92;;;2.42;;
21501;SDS011;27639;48.674;9.242;2022-08-04T01:58:27;4.35;;;2.65;;
21501;SDS011;27639;48.674;9.242;2022-08-04T02:03:26;4.50;;;2.65;;
21501;SDS011;27639;48.674;9.242;2022-08-04T02:05:57;4.45;;;2.22;;
21501;SDS011;27639;48.674;9.242;2022-08-04T02:11:15;6.15;;;2.67;;
21501;SDS011;27639;48.674;9.242;2022-08-04T02:17:11;4.45;;;2.65;;
21501;SDS011;27639;48.674;9.242;2022-08-04T02:19:47;4.10;;;2.40;;
21501;SDS011;27639;48.674;9.242;2022-08-04T02:22:17;4.60;;;2.70;;
21501;SDS011;27639;48.674;9.242;2022-08-04T02:24:48;4.57;;;2.28;;
21501;SDS011;27639;48.674;9.242;2022-08-04T02:27:21;3.83;;;2.55;;
21501;SDS011;27639;48.674;9.242;2022-08-04T02:29:55;4.45;;;2.20;;
21501;SDS011;27639;48.674;9.242;2022-08-04T02:32:27;5.75;;;2.53;;
21501;SDS011;27639;48.674;9.242;2022-08-04T02:34:59;3.90;;;2.70;;
21501;SDS011;27639;48.674;9.242;2022-08-04T02:37:30;5.43;;;2.57;;
21501;SDS011;27639;48.674;9.242;2022-08-04T02:39:58;4.07;;;2.67;;
21501;SDS011;27639;48.674;9.242;2022-08-04T02:42:25;4.95;;;2.45;;
21501;SDS011;27639;48.674;9.242;2022-08-04T02:44:53;4.15;;;2.63;;
21501;SDS011;27639;48.674;9.242;2022-08-04T02:47:22;4.97;;;2.80;;
21501;SDS011;27639;48.674;9.242;2022-08-04T02:49:50;4.05;;;2.20;;
21501;SDS011;27639;48.674;9.242;2022-08-04T02:52:19;5.45;;;2.58;;
21501;SDS011;27639;48.674;9.242;2022-08-04T02:54:48;5.00;;;2.58;;
21501;SDS011;27639;48.674;9.242;2022-08-04T02:57:17;4.28;;;2.97;;
21501;SDS011;27639;48.674;9.242;2022-08-04T02:59:52;5.10;;;2.50;;
21501;SDS011;27639;48.674;9.242;2022-08-04T03:02:33;4.13;;;2.70;;
21501;SDS011;27639;48.674;9.242;2022-08-04T03:05:21;4.60;;;2.70;;
21501;SDS011;27639;48.674;9.242;2022-08-04T03:08:13;3.42;;;2.15;;
21501;SDS011;27639;48.674;9.242;2022-08-04T03:36:38;4.32;;;2.85;;
21501;SDS011;27639;48.674;9.242;2022-08-04T03:42:03;4.38;;;2.50;;
21501;SDS011;27639;48.674;9.242;2022-08-04T03:56:35;5.63;;;2.97;;
21501;SDS011;27639;48.674;9.242;2022-08-04T04:10:07;4.28;;;2.65;;
21501;SDS011;27639;48.674;9.242;2022-08-04T04:24:20;4.85;;;2.88;;
21501;SDS011;27639;48.674;9.242;2022-08-04T04:30:06;6.10;;;3.00;;
21501;SDS011;27639;48.674;9.242;2022-08-04T04:36:10;4.78;;;2.80;;
21501;SDS011;27639;48.674;9.242;2022-08-04T04:41:33;5.32;;;3.00;;
21501;SDS011;27639;48.674;9.242;2022-08-04T04:47:08;6.03;;;2.83;;
21501;SDS011;27639;48.674;9.242;2022-08-04T04:50:03;4.50;;;2.85;;
21501;SDS011;27639;48.674;9.242;2022-08-04T04:52:37;7.72;;;2.63;;
21501;SDS011;27639;48.674;9.242;2022-08-04T04:55:20;5.38;;;2.78;;
21501;SDS011;27639;48.674;9.242;2022-08-04T05:00:21;4.45;;;3.03;;
21501;SDS011;27639;48.674;9.242;2022-08-04T05:06:36;6.28;;;3.22;;
21501;SDS011;27639;48.674;9.242;2022-08-04T05:09:21;5.53;;;3.10;;
21501;SDS011;27639;48.674;9.242;2022-08-04T05:14:32;5.25;;;3.10;;
21501;SDS011;27639;48.674;9.242;2022-08-04T05:17:03;5.18;;;2.97;;
21501;SDS011;27639;48.674;9.242;2022-08-04T05:22:27;5.90;;;3.13;;
21501;SDS011;27639;48.674;9.242;2022-08-04T05:25:00;5.47;;;2.75;;
21501;SDS011;27639;48.674;9.242;2022-08-04T05:27:39;4.15;;;2.80;;
21501;SDS011;27639;48.674;9.242;2022-08-04T05:30:09;5.70;;;2.97;;
21501;SDS011;27639;48.674;9.242;2022-08-04T05:32:47;5.82;;;3.03;;
21501;SDS011;27639;48.674;9.242;2022-08-04T05:35:35;5.00;;;2.80;;
21501;SDS011;27639;48.674;9.242;2022-08-04T05:38:05;5.50;;;2.60;;
21501;SDS011;27639;48.674;9.242;2022-08-04T05:40:34;4.72;;;2.83;;
21501;SDS011;27639;48.674;9.242;2022-08-04T05:43:02;4.80;;;3.20;;
21501;SDS011;27639;48.674;9.242;2022-08-04T05:45:30;4.32;;;2.72;;
21501;SDS011;27639;48.674;9.242;2022-08-04T05:48:00;4.63;;;3.10;;
21501;SDS011;27639;48.674;9.242;2022-08-04T05:50:27;5.78;;;3.30;;
21501;SDS011;27639;48.674;9.242;2022-08-04T05:52:54;5.60;;;3.13;;
21501;SDS011;27639;48.674;9.242;2022-08-04T05:55:22;4.97;;;3.10;;
21501;SDS011;27639;48.674;9.242;2022-08-04T05:57:50;4.13;;;2.65;;
21501;SDS011;27639;48.674;9.242;2022-08-04T06:00:16;6.25;;;3.20;;
21501;SDS011;27639;48.674;9.242;2022-08-04T06:02:44;5.53;;;2.78;;
21501;SDS011;27639;48.674;9.242;2022-08-04T06:05:13;5.60;;;3.10;;
21501;SDS011;27639;48.674;9.242;2022-08-04T06:07:41;4.82;;;2.90;;
21501;SDS011;27639;48.674;9.242;2022-08-04T06:10:07;5.25;;;3.10;;
21501;SDS011;27639;48.674;9.242;2022-08-04T06:12:39;4.97;;;3.00;;
21501;SDS011;27639;48.674;9.242;2022-08-04T06:15:24;4.22;;;2.95;;
21501;SDS011;27639;48.674;9.242;2022-08-04T06:17:53;4.95;;;3.00;;
21501;SDS011;27639;48.674;9.242;2022-08-04T06:20:23;5.15;;;2.90;;
21501;SDS011;27639;48.674;9.242;2022-08-04T06:22:53;5.22;;;3.17;;
21501;SDS011;27639;48.674;9.242;2022-08-04T06:25:27;6.80;;;3.30;;
21501;SDS011;27639;48.674;9.242;2022-08-04T06:27:56;5.68;;;2.83;;
21501;SDS011;27639;48.674;9.242;2022-08-04T06:30:25;6.07;;;3.00;;
21501;SDS011;27639;48.674;9.242;2022-08-04T06:32:52;8.38;;;3.47;;
21501;SDS011;27639;48.674;9.242;2022-08-04T06:35:24;6.75;;;2.60;;
21501;SDS011;27639;48.674;9.242;2022-08-04T06:37:51;5.10;;;3.25;;
21501;SDS011;27639;48.674;9.242;2022-08-04T06:40:19;6.05;;;2.88;;
21501;SDS011;27639;48.674;9.242;2022-08-04T06:42:47;6.95;;;3.00;;
21501;SDS011;27639;48.674;9.242;2022-08-04T06:45:13;6.15;;;2.83;;
21501;SDS011;27639;48.674;9.242;2022-08-04T06:47:40;5.45;;;2.85;;
21501;SDS011;27639;48.674;9.242;2022-08-04T06:50:08;6.60;;;2.78;;
21501;SDS011;27639;48.674;9.242;2022-08-04T06:52:35;5.60;;;2.70;;
21501;SDS011;27639;48.674;9.242;2022-08-04T06:55:02;4.88;;;2.47;;
21501;SDS011;27639;48.674;9.242;2022-08-04T06:57:28;6.10;;;2.72;;
21501;SDS011;27639;48.674;9.242;2022-08-04T07:00:04;5.93;;;2.88;;
21501;SDS011;27639;48.674;9.242;2022-08-04T07:02:38;5.25;;;2.65;;
21501;SDS011;27639;48.674;9.242;2022-08-04T07:05:09;4.63;;;2.60;;
21501;SDS011;27639;48.674;9.242;2022-08-04T07:07:35;6.07;;;2.65;;
21501;SDS011;27639;48.674;9.242;2022-08-04T07:10:01;4.20;;;2.80;;
21501;SDS011;27639;48.674;9.242;2022-08-04T07:12:27;4.53;;;2.85;;
21501;SDS011;27639;48.674;9.242;2022-08-04T07:14:54;4.93;;;2.83;;
21501;SDS011;27639;48.674;9.242;2022-08-04T07:17:21;3.97;;;2.40;;
21501;SDS011;27639;48.674;9.242;2022-08-04T07:19:47;4.25;;;2.33;;
21501;SDS011;27639;48.674;9.242;2022-08-04T07:22:13;3.78;;;2.42;;
21501;SDS011;27639;48.674;9.242;2022-08-04T07:24:40;4.35;;;2.60;;
21501;SDS011;27639;48.674;9.242;2022-08-04T07:27:06;3.75;;;2.28;;
21501;SDS011;27639;48.674;9.242;2022-08-04T07:29:33;5.25;;;2.47;;
21501;SDS011;27639;48.674;9.242;2022-08-04T07:31:59;3.80;;;2.50;;
21501;SDS011;27639;48.674;9.242;2022-08-04T07:34:26;3.47;;;2.30;;
21501;SDS011;27639;48.674;9.242;2022-08-04T07:36:54;3.83;;;1.95;;
21501;SDS011;27639;48.674;9.242;2022-08-04T07:39:22;4.13;;;2.22;;
21501;SDS011;27639;48.674;9.242;2022-08-04T07:41:49;3.67;;;2.28;;
21501;SDS011;27639;48.674;9.242;2022-08-04T07:44:15;4.65;;;2.70;;
21501;SDS011;27639;48.674;9.242;2022-08-04T07:46:41;5.45;;;2.35;;
21501;SDS011;27639;48.674;9.242;2022-08-04T07:49:09;4.63;;;3.17;;
21501;SDS011;27639;48.674;9.242;2022-08-04T07:51:35;4.30;;;2.35;;
21501;SDS011;27639;48.674;9.242;2022-08-04T07:54:01;4.28;;;2.50;;
21501;SDS011;27639;48.674;9.242;2022-08-04T07:56:29;5.47;;;2.22;;
21501;SDS011;27639;48.674;9.242;2022-08-04T07:58:59;3.80;;;2.42;;
21501;SDS011;27639;48.674;9.242;2022-08-04T08:01:25;4.80;;;2.15;;
21501;SDS011;27639;48.674;9.242;2022-08-04T08:03:51;4.90;;;2.30;;
21501;SDS011;27639;48.674;9.242;2022-08-04T08:06:18;3.25;;;2.05;;
21501;SDS011;27639;48.674;9.242;2022-08-04T08:08:43;3.88;;;2.25;;
21501;SDS011;27639;48.674;9.242;2022-08-04T08:11:09;4.20;;;2.33;;
21501;SDS011;27639;48.674;9.242;2022-08-04T08:13:35;4.03;;;2.05;;
21501;SDS011;27639;48.674;9.242;2022-08-04T08:16:01;4.07;;;2.53;;
21501;SDS011;27639;48.674;9.242;2022-08-04T08:18:28;4.53;;;2.45;;
21501;SDS011;27639;48.674;9.242;2022-08-04T08:20:54;4.85;;;2.80;;
21501;SDS011;27639;48.674;9.242;2022-08-04T08:23:20;3.20;;;2.05;;
21501;SDS011;27639;48.674;9.242;2022-08-04T08:25:46;5.00;;;2.65;;
21501;SDS011;27639;48.674;9.242;2022-08-04T08:28:12;4.25;;;2.47;;
21501;SDS011;27639;48.674;9.242;2022-08-04T08:30:39;3.88;;;2.50;;
21501;SDS011;27639;48.674;9.242;2022-08-04T08:33:06;3.85;;;2.53;;
21501;SDS011;27639;48.674;9.242;2022-08-04T08:39:00;5.53;;;2.80;;
21501;SDS011;27639;48.674;9.242;2022-08-04T08:50:30;5.75;;;2.33;;
21501;SDS011;27639;48.674;9.242;2022-08-04T08:53:26;3.92;;;2.30;;
21501;SDS011;27639;48.674;9.242;2022-08-04T08:56:10;3.90;;;2.42;;
21501;SDS011;27639;48.674;9.242;2022-08-04T08:59:11;4.68;;;2.42;;
21501;SDS011;27639;48.674;9.242;2022-08-04T09:04:31;8.32;;;2.45;;
21501;SDS011;27639;48.674;9.242;2022-08-04T09:16:13;5.35;;;2.13;;
21501;SDS011;27639;48.674;9.242;2022-08-04T09:18:52;3.70;;;2.20;;
21501;SDS011;27639;48.674;9.242;2022-08-04T09:24:02;4.28;;;2.22;;
21501;SDS011;27639;48.674;9.242;2022-08-04T09:26:49;4.45;;;2.03;;
21501;SDS011;27639;48.674;9.242;2022-08-04T09:29:26;3.30;;;2.30;;
21501;SDS011;27639;48.674;9.242;2022-08-04T09:37:23;4.18;;;2.35;;
21501;SDS011;27639;48.674;9.242;2022-08-04T09:40:34;4.00;;;2.50;;
21501;SDS011;27639;48.674;9.242;2022-08-04T09:43:19;3.78;;;2.40;;
21501;SDS011;27639;48.674;9.242;2022-08-04T09:48:37;5.30;;;2.33;;
21501;SDS011;27639;48.674;9.242;2022-08-04T09:51:45;4.90;;;2.50;;
21501;SDS011;27639;48.674;9.242;2022-08-04T10:00:10;4.57;;;2.67;;
21501;SDS011;27639;48.674;9.242;2022-08-04T10:02:44;4.72;;;2.63;;
21501;SDS011;27639;48.674;9.242;2022-08-04T10:05:16;4.00;;;2.40;;
21501;SDS011;27639;48.674;9.242;2022-08-04T10:10:50;5.88;;;2.50;;
21501;SDS011;27639;48.674;9.242;2022-08-04T10:13:25;5.55;;;2.47;;
21501;SDS011;27639;48.674;9.242;2022-08-04T10:24:26;4.15;;;2.35;;
21501;SDS011;27639;48.674;9.242;2022-08-04T10:27:23;4.95;;;2.75;;
21501;SDS011;27639;48.674;9.242;2022-08-04T10:29:56;5.68;;;2.40;;
21501;SDS011;27639;48.674;9.242;2022-08-04T10:35:14;4.07;;;2.15;;
21501;SDS011;27639;48.674;9.242;2022-08-04T10:40:47;4.65;;;2.65;;
21501;SDS011;27639;48.674;9.242;2022-08-04T10:43:40;7.20;;;2.35;;
21501;SDS011;27639;48.674;9.242;2022-08-04T10:46:17;2.75;;;1.75;;
21501;SDS011;27639;48.674;9.242;2022-08-04T10:49:03;3.08;;;1.70;;
21501;SDS011;27639;48.674;9.242;2022-08-04T10:51:46;3.33;;;2.10;;
21501;SDS011;27639;48.674;9.242;2022-08-04T11:07:43;4.55;;;1.90;;
21501;SDS011;27639;48.674;9.242;2022-08-04T11:10:11;4.18;;;1.70;;
21501;SDS011;27639;48.674;9.242;2022-08-04T11:12:38;2.40;;;1.50;;
21501;SDS011;27639;48.674;9.242;2022-08-04T11:15:18;2.90;;;1.60;;
21501;SDS011;27639;48.674;9.242;2022-08-04T11:17:49;3.38;;;1.35;;
21501;SDS011;27639;48.674;9.242;2022-08-04T11:20:34;2.58;;;1.40;;
21501;SDS011;27639;48.674;9.242;2022-08-04T11:23:08;4.25;;;1.50;;
21501;SDS011;27639;48.674;9.242;2022-08-04T11:25:39;3.20;;;1.73;;
21501;SDS011;27639;48.674;9.242;2022-08-04T11:33:43;3.67;;;1.73;;
21501;SDS011;27639;48.674;9.242;2022-08-04T11:36:31;3.20;;;1.85;;
21501;SDS011;27639;48.674;9.242;2022-08-04T11:39:27;2.85;;;1.80;;
21501;SDS011;27639;48.674;9.242;2022-08-04T11:47:25;5.25;;;2.40;;
21501;SDS011;27639;48.674;9.242;2022-08-04T11:50:10;4.20;;;1.95;;
21501;SDS011;27639;48.674;9.242;2022-08-04T11:52:52;4.10;;;2.30;;
21501;SDS011;27639;48.674;9.242;2022-08-04T11:55:21;3.20;;;2.05;;
21501;SDS011;27639;48.674;9.242;2022-08-04T11:57:49;3.38;;;2.20;;
21501;SDS011;27639;48.674;9.242;2022-08-04T12:00:15;3.03;;;1.98;;
21501;SDS011;27639;48.674;9.242;2022-08-04T12:02:53;2.97;;;2.05;;
21501;SDS011;27639;48.674;9.242;2022-08-04T12:06:25;4.38;;;2.22;;
21501;SDS011;27639;48.674;9.242;2022-08-04T12:11:23;3.45;;;2.35;;
21501;SDS011;27639;48.674;9.242;2022-08-04T12:13:56;4.88;;;2.13;;
21501;SDS011;27639;48.674;9.242;2022-08-04T12:16:54;5.10;;;2.50;;
21501;SDS011;27639;48.674;9.242;2022-08-04T12:19:29;5.68;;;2.40;;
21501;SDS011;27639;48.674;9.242;2022-08-04T12:22:16;3.58;;;2.20;;
21501;SDS011;27639;48.674;9.242;2022-08-04T12:24:51;3.63;;;1.92;;
21501;SDS011;27639;48.674;9.242;2022-08-04T12:27:24;3.75;;;2.00;;
21501;SDS011;27639;48.674;9.242;2022-08-04T12:29:55;4.38;;;2.10;;
21501;SDS011;27639;48.674;9.242;2022-08-04T12:32:23;3.08;;;1.88;;
21501;SDS011;27639;48.674;9.242;2022-08-04T12:40:16;4.50;;;2.17;;
21501;SDS011;27639;48.674;9.242;2022-08-04T12:45:29;3.60;;;2.10;;
21501;SDS011;27639;48.674;9.242;2022-08-04T12:47:56;4.43;;;2.22;;
21501;SDS011;27639;48.674;9.242;2022-08-04T12:50:24;5.43;;;2.25;;
21501;SDS011;27639;48.674;9.242;2022-08-04T12:52:56;3.25;;;1.92;;
21501;SDS011;27639;48.674;9.242;2022-08-04T12:55:24;4.75;;;2.17;;
21501;SDS011;27639;48.674;9.242;2022-08-04T12:57:52;3.55;;;2.00;;
21501;SDS011;27639;48.674;9.242;2022-08-04T13:00:27;3.47;;;2.15;;
21501;SDS011;27639;48.674;9.242;2022-08-04T13:02:57;4.28;;;2.10;;
21501;SDS011;27639;48.674;9.242;2022-08-04T13:07:56;3.58;;;2.28;;
21501;SDS011;27639;48.674;9.242;2022-08-04T13:10:24;3.42;;;2.20;;
21501;SDS011;27639;48.674;9.242;2022-08-04T13:12:52;3.67;;;2.08;;
21501;SDS011;27639;48.674;9.242;2022-08-04T13:15:21;4.10;;;2.30;;
21501;SDS011;27639;48.674;9.242;2022-08-04T13:20:25;4.18;;;2.05;;
21501;SDS011;27639;48.674;9.242;2022-08-04T13:22:59;3.08;;;2.05;;
21501;SDS011;27639;48.674;9.242;2022-08-04T13:25:34;3.78;;;2.30;;
21501;SDS011;27639;48.674;9.242;2022-08-04T13:28:04;3.85;;;2.30;;
21501;SDS011;27639;48.674;9.242;2022-08-04T13:30:36;4.55;;;2.38;;
21501;SDS011;27639;48.674;9.242;2022-08-04T13:33:02;4.90;;;2.10;;
21501;SDS011;27639;48.674;9.242;2022-08-04T13:35:29;3.88;;;1.95;;
21501;SDS011;27639;48.674;9.242;2022-08-04T13:37:56;3.55;;;2.33;;
21501;SDS011;27639;48.674;9.242;2022-08-04T13:40:24;3.65;;;2.20;;
21501;SDS011;27639;48.674;9.242;2022-08-04T13:42:51;3.20;;;2.00;;
21501;SDS011;27639;48.674;9.242;2022-08-04T13:45:19;3.67;;;2.35;;
21501;SDS011;27639;48.674;9.242;2022-08-04T13:47:47;4.97;;;2.38;;
21501;SDS011;27639;48.674;9.242;2022-08-04T13:52:46;4.15;;;2.20;;
21501;SDS011;27639;48.674;9.242;2022-08-04T13:55:38;3.58;;;2.05;;
21501;SDS011;27639;48.674;9.242;2022-08-04T13:58:19;3.70;;;2.45;;
21501;SDS011;27639;48.674;9.242;2022-08-04T14:00:57;3.50;;;2.35;;
21501;SDS011;27639;48.674;9.242;2022-08-04T14:03:32;4.55;;;2.40;;
21501;SDS011;27639;48.674;9.242;2022-08-04T14:06:10;3.38;;;2.30;;
21501;SDS011;27639;48.674;9.242;2022-08-04T14:08:47;2.90;;;1.80;;
21501;SDS011;27639;48.674;9.242;2022-08-04T14:11:23;3.95;;;2.20;;
21501;SDS011;27639;48.674;9.242;2022-08-04T14:13:57;3.40;;;2.25;;
21501;SDS011;27639;48.674;9.242;2022-08-04T14:16:24;3.95;;;1.98;;
21501;SDS011;27639;48.674;9.242;2022-08-04T14:18:57;4.45;;;2.47;;
21501;SDS011;27639;48.674;9.242;2022-08-04T14:21:25;3.30;;;2.13;;
21501;SDS011;27639;48.674;9.242;2022-08-04T14:23:52;3.38;;;2.30;;
21501;SDS011;27639;48.674;9.242;2022-08-04T14:28:52;3.42;;;2.20;;
21501;SDS011;27639;48.674;9.242;2022-08-04T14:31:22;3.30;;;2.20;;
21501;SDS011;27639;48.674;9.242;2022-08-04T14:33:49;3.58;;;2.33;;
21501;SDS011;27639;48.674;9.242;2022-08-04T14:36:17;4.35;;;2.30;;
21501;SDS011;27639;48.674;9.242;2022-08-04T14:38:47;3.78;;;2.20;;
21501;SDS011;27639;48.674;9.242;2022-08-04T14:41:25;3.30;;;2.05;;
21501;SDS011;27639;48.674;9.242;2022-08-04T14:44:07;3.65;;;2.28;;
21501;SDS011;27639;48.674;9.242;2022-08-04T14:46:33;4.07;;;2.65;;
21501;SDS011;27639;48.674;9.242;2022-08-04T14:49:12;4.15;;;2.40;;
21501;SDS011;27639;48.674;9.242;2022-08-04T14:51:39;3.10;;;2.22;;
21501;SDS011;27639;48.674;9.242;2022-08-04T14:54:10;3.00;;;2.05;;
21501;SDS011;27639;48.674;9.242;2022-08-04T14:56:38;4.75;;;2.20;;
21501;SDS011;27639;48.674;9.242;2022-08-04T14:59:08;7.20;;;2.45;;
21501;SDS011;27639;48.674;9.242;2022-08-04T15:01:38;3.78;;;2.35;;
21501;SDS011;27639;48.674;9.242;2022-08-04T15:04:05;4.07;;;2.38;;
21501;SDS011;27639;48.674;9.242;2022-08-04T15:06:32;4.32;;;2.30;;
21501;SDS011;27639;48.674;9.242;2022-08-04T15:08:59;3.40;;;2.22;;
21501;SDS011;27639;48.674;9.242;2022-08-04T15:11:28;3.50;;;2.60;;
21501;SDS011;27639;48.674;9.242;2022-08-04T15:13:54;3.92;;;2.58;;
21501;SDS011;27639;48.674;9.242;2022-08-04T15:16:21;3.00;;;1.80;;
21501;SDS011;27639;48.674;9.242;2022-08-04T15:18:48;4.70;;;2.50;;
21501;SDS011;27639;48.674;9.242;2022-08-04T15:21:15;3.28;;;2.20;;
21501;SDS011;27639;48.674;9.242;2022-08-04T15:23:41;4.30;;;2.20;;
21501;SDS011;27639;48.674;9.242;2022-08-04T15:26:15;3.47;;;2.00;;
21501;SDS011;27639;48.674;9.242;2022-08-04T15:28:50;6.07;;;2.22;;
21501;SDS011;27639;48.674;9.242;2022-08-04T15:31:18;3.40;;;2.17;;
21501;SDS011;27639;48.674;9.242;2022-08-04T15:33:45;4.93;;;2.50;;
21501;SDS011;27639;48.674;9.242;2022-08-04T15:36:13;3.97;;;2.50;;
21501;SDS011;27639;48.674;9.242;2022-08-04T15:41:37;3.55;;;2.33;;
21501;SDS011;27639;48.674;9.242;2022-08-04T15:49:19;3.72;;;2.40;;
21501;SDS011;27639;48.674;9.242;2022-08-04T15:51:46;3.40;;;2.28;;
21501;SDS011;27639;48.674;9.242;2022-08-04T15:54:27;3.70;;;2.28;;
21501;SDS011;27639;48.674;9.242;2022-08-04T15:56:52;3.60;;;2.40;;
21501;SDS011;27639;48.674;9.242;2022-08-04T16:13:15;4.90;;;3.88;;
21501;SDS011;27639;48.674;9.242;2022-08-04T16:15:53;3.67;;;2.50;;
21501;SDS011;27639;48.674;9.242;2022-08-04T16:20:46;4.05;;;2.80;;
21501;SDS011;27639;48.674;9.242;2022-08-04T16:23:55;3.95;;;2.25;;
21501;SDS011;27639;48.674;9.242;2022-08-04T16:29:01;8.65;;;7.43;;
21501;SDS011;27639;48.674;9.242;2022-08-04T16:32:06;5.70;;;3.10;;
21501;SDS011;27639;48.674;9.242;2022-08-04T16:35:17;10.13;;;5.53;;
21501;SDS011;27639;48.674;9.242;2022-08-04T16:37:32;9.70;;;7.13;;
21501;SDS011;27639;48.674;9.242;2022-08-04T16:43:01;6.65;;;5.93;;
21501;SDS011;27639;48.674;9.242;2022-08-04T16:48:05;15.48;;;8.73;;
21501;SDS011;27639;48.674;9.242;2022-08-04T16:50:33;8.63;;;6.22;;
21501;SDS011;27639;48.674;9.242;2022-08-04T16:53:10;7.18;;;3.58;;
21501;SDS011;27639;48.674;9.242;2022-08-04T16:55:37;3.90;;;2.65;;
21501;SDS011;27639;48.674;9.242;2022-08-04T16:58:03;4.32;;;2.40;;
21501;SDS011;27639;48.674;9.242;2022-08-04T17:00:30;4.78;;;2.78;;
21501;SDS011;27639;48.674;9.242;2022-08-04T17:03:00;3.60;;;2.40;;
21501;SDS011;27639;48.674;9.242;2022-08-04T17:05:30;9.25;;;4.97;;
21501;SDS011;27639;48.674;9.242;2022-08-04T17:07:58;6.70;;;2.60;;
21501;SDS011;27639;48.674;9.242;2022-08-04T17:10:36;5.15;;;2.70;;
21501;SDS011;27639;48.674;9.242;2022-08-04T17:15:47;3.22;;;2.20;;
21501;SDS011;27639;48.674;9.242;2022-08-04T17:18:18;3.47;;;2.42;;
21501;SDS011;27639;48.674;9.242;2022-08-04T17:20:46;7.72;;;2.83;;
21501;SDS011;27639;48.674;9.242;2022-08-04T17:23:22;5.53;;;2.70;;
21501;SDS011;27639;48.674;9.242;2022-08-04T17:25:53;6.47;;;2.50;;
21501;SDS011;27639;48.674;9.242;2022-08-04T17:28:20;5.65;;;2.58;;
21501;SDS011;27639;48.674;9.242;2022-08-04T17:30:49;5.47;;;2.35;;
21501;SDS011;27639;48.674;9.242;2022-08-04T17:33:15;5.68;;;2.53;;
21501;SDS011;27639;48.674;9.242;2022-08-04T17:35:42;5.10;;;2.60;;
21501;SDS011;27639;48.674;9.242;2022-08-04T17:38:09;3.85;;;2.70;;
21501;SDS011;27639;48.674;9.242;2022-08-04T17:40:48;4.25;;;2.60;;
21501;SDS011;27639;48.674;9.242;2022-08-04T17:43:42;4.80;;;2.60;;
21501;SDS011;27639;48.674;9.242;2022-08-04T17:48:55;5.10;;;2.50;;
21501;SDS011;27639;48.674;9.242;2022-08-04T17:51:34;4.65;;;2.55;;
21501;SDS011;27639;48.674;9.242;2022-08-04T17:54:11;5.25;;;2.75;;
21501;SDS011;27639;48.674;9.242;2022-08-04T17:59:06;3.25;;;2.40;;
21501;SDS011;27639;48.674;9.242;2022-08-04T18:01:38;3.70;;;2.58;;
21501;SDS011;27639;48.674;9.242;2022-08-04T18:06:58;4.50;;;2.40;;
21501;SDS011;27639;48.674;9.242;2022-08-04T18:09:36;5.18;;;2.75;;
21501;SDS011;27639;48.674;9.242;2022-08-04T18:12:08;3.85;;;2.47;;
21501;SDS011;27639;48.674;9.242;2022-08-04T18:14:49;3.67;;;2.38;;
21501;SDS011;27639;48.674;9.242;2022-08-04T18:17:35;4.87;;;2.80;;
21501;SDS011;27639;48.674;9.242;2022-08-04T18:20:03;4.05;;;2.60;;
21501;SDS011;27639;48.674;9.242;2022-08-04T18:22:30;4.30;;;2.72;;
21501;SDS011;27639;48.674;9.242;2022-08-04T18:24:55;4.55;;;2.63;;
21501;SDS011;27639;48.674;9.242;2022-08-04T18:27:22;4.70;;;2.53;;
21501;SDS011;27639;48.674;9.242;2022-08-04T18:29:50;3.42;;;2.47;;
21501;SDS011;27639;48.674;9.242;2022-08-04T18:32:16;3.45;;;2.40;;
21501;SDS011;27639;48.674;9.242;2022-08-04T18:34:42;4.38;;;2.30;;
21501;SDS011;27639;48.674;9.242;2022-08-04T18:37:08;4.57;;;2.45;;
21501;SDS011;27639;48.674;9.242;2022-08-04T18:39:33;6.35;;;2.80;;
21501;SDS011;27639;48.674;9.242;2022-08-04T18:41:59;3.72;;;2.58;;
21501;SDS011;27639;48.674;9.242;2022-08-04T18:44:25;5.00;;;3.03;;
21501;SDS011;27639;48.674;9.242;2022-08-04T18:46:52;6.00;;;2.50;;
21501;SDS011;27639;48.674;9.242;2022-08-04T18:49:19;4.97;;;2.90;;
21501;SDS011;27639;48.674;9.242;2022-08-04T18:51:48;5.28;;;2.67;;
21501;SDS011;27639;48.674;9.242;2022-08-04T18:54:17;4.57;;;2.88;;
21501;SDS011;27639;48.674;9.242;2022-08-04T18:56:42;3.90;;;2.75;;
21501;SDS011;27639;48.674;9.242;2022-08-04T18:59:08;4.80;;;3.17;;
21501;SDS011;27639;48.674;9.242;2022-08-04T19:01:33;4.75;;;2.78;;
21501;SDS011;27639;48.674;9.242;2022-08-04T19:03:59;5.28;;;2.78;;
21501;SDS011;27639;48.674;9.242;2022-08-04T19:06:27;4.60;;;2.67;;
21501;SDS011;27639;48.674;9.242;2022-08-04T19:08:53;5.63;;;3.00;;
21501;SDS011;27639;48.674;9.242;2022-08-04T19:11:19;6.43;;;2.83;;
21501;SDS011;27639;48.674;9.242;2022-08-04T19:13:44;5.07;;;2.83;;
21501;SDS011;27639;48.674;9.242;2022-08-04T19:16:10;6.40;;;3.17;;
21501;SDS011;27639;48.674;9.242;2022-08-04T19:18:36;4.28;;;3.20;;
21501;SDS011;27639;48.674;9.242;2022-08-04T19:21:01;4.53;;;3.10;;
21501;SDS011;27639;48.674;9.242;2022-08-04T19:23:27;5.13;;;3.00;;
21501;SDS011;27639;48.674;9.242;2022-08-04T19:25:55;4.68;;;2.80;;
21501;SDS011;27639;48.674;9.242;2022-08-04T19:28:20;4.78;;;2.78;;
21501;SDS011;27639;48.674;9.242;2022-08-04T19:30:46;5.82;;;3.20;;
21501;SDS011;27639;48.674;9.242;2022-08-04T19:33:12;4.72;;;3.25;;
21501;SDS011;27639;48.674;9.242;2022-08-04T19:35:38;6.43;;;3.40;;
21501;SDS011;27639;48.674;9.242;2022-08-04T19:38:06;5.15;;;3.40;;
21501;SDS011;27639;48.674;9.242;2022-08-04T19:40:32;5.03;;;3.38;;
21501;SDS011;27639;48.674;9.242;2022-08-04T19:42:58;4.40;;;3.30;;
21501;SDS011;27639;48.674;9.242;2022-08-04T19:45:23;6.15;;;3.25;;
21501;SDS011;27639;48.674;9.242;2022-08-04T19:47:49;6.40;;;3.30;;
21501;SDS011;27639;48.674;9.242;2022-08-04T19:50:15;4.88;;;3.28;;
21501;SDS011;27639;48.674;9.242;2022-08-04T19:52:40;5.18;;;3.50;;
21501;SDS011;27639;48.674;9.242;2022-08-04T19:55:06;7.47;;;3.65;;
21501;SDS011;27639;48.674;9.242;2022-08-04T19:57:32;5.05;;;3.28;;